createdAt,value
2019-04-07T00:03:37.430Z,59.70
2019-04-07T00:08:37.678Z,59.60
2019-04-07T00:13:37.420Z,59.60
2019-04-07T00:18:37.391Z,59.50
2019-04-07T00:23:37.166Z,59.80
2019-04-07T00:28:36.804Z,60.40
2019-04-07T00:33:37.478Z,60.10
2019-04-07T00:38:37.042Z,60.10
2019-04-07T00:43:36.664Z,60.30
2019-04-07T00:48:36.448Z,60.50
2019-04-07T00:53:36.639Z,60.90
2019-04-07T00:58:36.934Z,61.30
2019-04-07T01:03:36.731Z,62.20
2019-04-07T01:08:36.297Z,62.10
2019-04-07T01:13:36.266Z,62.40
2019-04-07T01:18:37.194Z,63.00
2019-04-07T01:23:37.978Z,63.00
2019-04-07T01:28:37.747Z,63.20
2019-04-07T01:33:37.739Z,63.60
2019-04-07T01:38:37.897Z,63.90
2019-04-07T01:43:49.397Z,64.10
2019-04-07T01:48:55.959Z,64.70
2019-04-07T01:54:10.261Z,65.00
2019-04-07T01:59:19.934Z,65.30
2019-04-07T02:04:37.490Z,66.00
2019-04-07T02:10:02.623Z,66.60
2019-04-07T02:15:12.679Z,67.10
2019-04-07T02:20:54.196Z,68.40
2019-04-07T02:26:00.169Z,68.40
2019-04-07T02:31:11.054Z,68.70
2019-04-07T02:36:29.145Z,69.00
2019-04-07T02:41:32.717Z,70.20
2019-04-07T02:46:40.835Z,70.60
2019-04-07T02:51:54.613Z,70.70
2019-04-07T02:57:09.995Z,71.00
2019-04-07T03:02:20.733Z,71.50
2019-04-07T03:07:27.071Z,71.60
2019-04-07T03:12:41.397Z,73.10
2019-04-07T03:17:50.191Z,73.90
2019-04-07T03:23:09.416Z,74.50
2019-04-07T03:28:27.287Z,76.30
2019-04-07T03:33:40.600Z,76.40
2019-04-07T03:38:51.828Z,78.80
2019-04-07T03:43:59.747Z,80.80
2019-04-07T03:49:11.303Z,81.20
2019-04-07T03:54:36.774Z,83.00
2019-04-07T03:59:45.377Z,83.00
2019-04-07T04:04:57.415Z,85.20
2019-04-07T04:10:25.578Z,85.30
2019-04-07T04:15:34.308Z,85.10
2019-04-07T04:20:34.681Z,86.80
2019-04-07T04:25:34.548Z,87.50
2019-04-07T04:30:34.232Z,89.30
2019-04-07T04:35:33.996Z,90.50
2019-04-07T04:40:33.674Z,90.70
2019-04-07T04:45:33.826Z,91.30
2019-04-07T04:50:33.523Z,92.40
2019-04-07T04:55:33.777Z,93.60
2019-04-07T05:00:34.047Z,94.10
2019-04-07T05:05:34.474Z,95.40
2019-04-07T05:10:34.848Z,95.10
2019-04-07T05:15:35.125Z,95.80
2019-04-07T05:20:34.831Z,95.60
2019-04-07T05:25:34.914Z,95.60
2019-04-07T05:30:34.750Z,96.40
2019-04-07T05:35:35.066Z,95.80
2019-04-07T05:40:34.778Z,95.90
2019-04-07T05:45:36.765Z,95.40
2019-04-07T05:50:36.032Z,95.10
2019-04-07T05:55:35.698Z,95.70
2019-04-07T06:00:36.128Z,95.30
2019-04-07T06:05:36.905Z,94.40
2019-04-07T06:10:38.669Z,94.40
2019-04-07T06:15:39.443Z,93.60
2019-04-07T06:20:39.639Z,94.30
2019-04-07T06:25:42.863Z,93.10
2019-04-07T06:30:42.928Z,93.10
2019-04-07T06:35:45.077Z,92.60
2019-04-07T06:40:45.906Z,91.60
2019-04-07T06:45:58.509Z,91.20
2019-04-07T06:51:07.629Z,90.70
2019-04-07T06:56:32.229Z,91.10
2019-04-07T07:01:49.307Z,90.90
2019-04-07T07:07:26.582Z,91.30
2019-04-07T07:12:38.705Z,90.50
2019-04-07T07:17:42.369Z,89.70
2019-04-07T07:22:47.609Z,88.80
2019-04-07T07:27:46.494Z,90.70
2019-04-07T07:32:46.412Z,88.90
2019-04-07T07:37:46.667Z,88.50
2019-04-07T07:42:49.010Z,87.90
2019-04-07T07:47:51.338Z,85.10
2019-04-07T07:52:51.539Z,87.00
2019-04-07T07:57:55.506Z,87.60
2019-04-07T08:02:53.575Z,85.70
2019-04-07T08:07:54.149Z,85.00
2019-04-07T08:12:54.473Z,84.20
2019-04-07T08:17:55.435Z,82.60
2019-04-07T08:22:55.060Z,83.00
2019-04-07T08:27:55.319Z,78.30
2019-04-07T08:32:57.676Z,77.80
2019-04-07T08:37:56.760Z,76.60
2019-04-07T08:42:58.241Z,75.20
2019-04-07T08:47:58.103Z,73.20
2019-04-07T08:52:57.983Z,73.50
2019-04-07T08:58:02.248Z,69.40
2019-04-07T09:03:05.444Z,66.60
2019-04-07T09:08:05.000Z,64.60
2019-04-07T09:13:06.571Z,64.20
2019-04-07T09:18:14.286Z,62.40
2019-04-07T09:23:19.017Z,61.80
2019-04-07T09:28:31.610Z,57.60
2019-04-07T09:33:48.111Z,56.70
2019-04-07T09:39:01.509Z,54.60
2019-04-07T09:44:13.588Z,54.70
2019-04-07T09:49:33.075Z,53.80
2019-04-07T09:54:43.870Z,53.80
2019-04-07T10:00:07.141Z,52.10
2019-04-07T10:05:20.716Z,52.30
2019-04-07T10:10:30.371Z,51.40
2019-04-07T10:15:37.911Z,52.50
2019-04-07T10:20:48.038Z,54.10
2019-04-07T10:26:13.066Z,52.40
2019-04-07T10:31:22.459Z,50.40
2019-04-07T10:36:40.638Z,48.70
2019-04-07T10:42:11.302Z,48.90
2019-04-07T10:47:30.304Z,47.00
2019-04-07T10:52:41.207Z,48.60
2019-04-07T10:57:50.561Z,45.90
2019-04-07T11:03:08.413Z,44.70
2019-04-07T11:08:36.525Z,42.60
2019-04-07T11:13:44.196Z,42.70
2019-04-07T11:18:57.143Z,41.60
2019-04-07T11:24:03.970Z,41.10
2019-04-07T11:29:19.364Z,42.40
2019-04-07T11:34:24.475Z,44.70
2019-04-07T11:39:46.325Z,42.20
2019-04-07T11:44:56.276Z,41.90
2019-04-07T11:50:01.419Z,42.10
2019-04-07T11:55:11.889Z,42.90
2019-04-07T12:00:20.627Z,42.00
2019-04-07T12:05:51.338Z,40.90
2019-04-07T12:11:06.626Z,40.70
2019-04-07T12:16:16.678Z,40.70
2019-04-07T12:21:25.808Z,39.50
2019-04-07T12:26:44.068Z,39.30
2019-04-07T12:31:54.042Z,38.00
2019-04-07T12:37:15.610Z,40.10
2019-04-07T12:42:42.751Z,39.40
2019-04-07T12:48:01.385Z,36.20
2019-04-07T12:53:27.466Z,38.80
2019-04-07T12:58:47.479Z,37.70
2019-04-07T13:03:57.495Z,36.30
2019-04-07T13:09:02.856Z,37.50
2019-04-07T13:14:23.380Z,37.50
2019-04-07T13:19:59.578Z,36.40
2019-04-07T13:25:05.935Z,36.80
2019-04-07T13:30:19.305Z,37.90
2019-04-07T13:35:33.993Z,38.00
2019-04-07T13:40:47.331Z,37.40
2019-04-07T13:45:56.907Z,36.80
2019-04-07T13:51:12.948Z,37.00
2019-04-07T13:56:26.851Z,36.90
2019-04-07T14:01:33.587Z,37.00
2019-04-07T14:06:58.927Z,36.60
2019-04-07T14:12:11.774Z,36.50
2019-04-07T14:17:19.661Z,36.80
2019-04-07T14:22:26.678Z,35.90
2019-04-07T14:27:36.241Z,36.50
2019-04-07T14:32:50.996Z,36.30
2019-04-07T14:38:29.106Z,34.40
2019-04-07T14:43:48.570Z,34.10
2019-04-07T14:49:01.939Z,33.80
2019-04-07T14:54:08.900Z,36.00
2019-04-07T14:59:27.252Z,33.60
2019-04-07T15:04:32.048Z,33.80
2019-04-07T15:09:41.530Z,34.80
2019-04-07T15:14:41.610Z,34.60
2019-04-07T15:19:41.343Z,33.50
2019-04-07T15:24:41.148Z,32.20
2019-04-07T15:29:43.800Z,32.10
2019-04-07T15:34:43.207Z,32.50
2019-04-07T15:39:44.431Z,32.00
2019-04-07T15:44:45.022Z,32.30
2019-04-07T15:49:45.414Z,32.30
2019-04-07T15:54:45.074Z,32.90
2019-04-07T15:59:45.014Z,34.20
2019-04-07T16:04:44.897Z,32.50
2019-04-07T16:09:53.465Z,33.40
2019-04-07T16:14:47.057Z,33.50
2019-04-07T16:19:50.849Z,33.10
2019-04-07T16:24:51.618Z,31.90
2019-04-07T16:29:49.278Z,32.20
2019-04-07T16:34:49.805Z,31.40
2019-04-07T16:39:50.131Z,31.70
2019-04-07T16:44:50.526Z,31.90
2019-04-07T16:49:50.364Z,31.60
2019-04-07T16:54:50.517Z,31.70
2019-04-07T16:59:50.194Z,32.80
2019-04-07T17:04:50.605Z,33.20
2019-04-07T17:09:50.860Z,32.90
2019-04-07T17:14:51.141Z,33.10
2019-04-07T17:19:51.761Z,34.30
2019-04-07T17:24:51.982Z,35.30
2019-04-07T17:29:54.037Z,36.00
2019-04-07T17:34:53.044Z,37.10
2019-04-07T17:39:58.359Z,37.90
2019-04-07T17:45:13.089Z,38.40
2019-04-07T17:50:21.963Z,39.20
2019-04-07T17:55:42.127Z,39.10
2019-04-07T18:00:53.211Z,39.50
2019-04-07T18:06:11.220Z,39.60
2019-04-07T18:11:30.129Z,40.10
2019-04-07T18:16:42.892Z,40.20
2019-04-07T18:22:01.123Z,39.80
2019-04-07T18:27:15.920Z,40.10
2019-04-07T18:32:44.895Z,40.90
2019-04-07T18:37:54.040Z,41.20
2019-04-07T18:43:21.900Z,41.00
2019-04-07T18:48:40.239Z,42.10
2019-04-07T18:53:51.801Z,42.20
2019-04-07T18:59:09.759Z,42.40
2019-04-07T19:04:28.398Z,42.30
2019-04-07T19:09:37.721Z,41.60
2019-04-07T19:15:04.155Z,42.30
2019-04-07T19:20:21.154Z,42.30
2019-04-07T19:25:35.529Z,42.60
2019-04-07T19:30:53.282Z,42.60
2019-04-07T19:36:04.803Z,42.50
2019-04-07T19:41:13.270Z,43.10
2019-04-07T19:46:40.691Z,42.80
2019-04-07T19:52:02.380Z,42.60
2019-04-07T19:57:28.622Z,43.50
2019-04-07T20:02:42.531Z,42.70
2019-04-07T20:08:09.956Z,43.30
2019-04-07T20:13:22.386Z,42.60
2019-04-07T20:18:54.679Z,43.10
2019-04-07T20:24:04.375Z,43.10
2019-04-07T20:29:21.677Z,43.60
2019-04-07T20:34:41.666Z,43.80
2019-04-07T20:40:00.380Z,43.80
2019-04-07T20:45:14.282Z,44.40
2019-04-07T20:50:29.246Z,43.70
2019-04-07T20:55:39.529Z,44.80
2019-04-07T21:01:00.000Z,45.00
2019-04-07T21:06:18.912Z,45.50
2019-04-07T21:11:42.769Z,46.20
2019-04-07T21:16:48.018Z,46.10
2019-04-07T21:22:05.538Z,46.50
2019-04-07T21:27:26.716Z,46.90
2019-04-07T21:32:42.394Z,46.60
2019-04-07T21:38:13.547Z,47.00
2019-04-07T21:43:42.444Z,46.80
2019-04-07T21:48:48.610Z,47.20
2019-04-07T21:54:14.006Z,47.40
2019-04-07T21:59:34.211Z,47.70
2019-04-07T22:04:54.554Z,47.70
2019-04-07T22:09:56.763Z,48.10
2019-04-07T22:14:57.099Z,47.90
2019-04-07T22:19:56.726Z,48.00
2019-04-07T22:24:56.290Z,47.80
2019-04-07T22:29:59.895Z,47.70
2019-04-07T22:35:02.648Z,47.70
2019-04-07T22:40:02.190Z,47.70
2019-04-07T22:45:02.209Z,47.60
2019-04-07T22:50:06.566Z,47.80
2019-04-07T22:55:08.523Z,48.00
2019-04-07T23:00:15.203Z,48.10
2019-04-07T23:05:16.973Z,48.30
2019-04-07T23:10:18.343Z,48.30
2019-04-07T23:15:18.740Z,48.20
2019-04-07T23:20:19.865Z,48.30
2019-04-07T23:25:20.024Z,48.70
2019-04-07T23:30:23.620Z,48.90
2019-04-07T23:35:24.403Z,49.10
2019-04-07T23:40:24.178Z,50.30
2019-04-07T23:45:23.785Z,50.00
2019-04-07T23:50:23.387Z,50.30
2019-04-07T23:55:24.013Z,50.60
